createdAt,value
2023-01-17T00:00:43.535Z,11.68
2023-01-17T00:01:55.455Z,12.13
2023-01-17T00:02:58.027Z,12.40
2023-01-17T00:04:16.161Z,12.65
2023-01-17T00:05:36.391Z,16.38
2023-01-17T00:07:05.606Z,15.50
2023-01-17T00:08:26.892Z,12.98
2023-01-17T00:09:50.727Z,12.13
2023-01-17T00:10:55.588Z,9.68
2023-01-17T00:11:58.452Z,10.32
2023-01-17T00:13:05.401Z,15.85
2023-01-17T00:14:10.512Z,11.23
2023-01-17T00:15:17.019Z,13.35
2023-01-17T00:16:21.938Z,13.00
2023-01-17T00:17:29.147Z,11.23
2023-01-17T00:18:34.405Z,10.77
2023-01-17T00:19:51.529Z,8.85
2023-01-17T00:21:08.773Z,9.20
2023-01-17T00:22:26.711Z,10.27
2023-01-17T00:23:43.821Z,11.95
2023-01-17T00:25:03.216Z,9.13
2023-01-17T00:26:09.867Z,9.32
2023-01-17T00:27:14.496Z,9.60
2023-01-17T00:28:16.858Z,12.02
2023-01-17T00:29:18.646Z,10.25
2023-01-17T00:30:20.808Z,11.30
2023-01-17T00:31:22.682Z,16.90
2023-01-17T00:32:27.274Z,12.00
2023-01-17T00:33:29.584Z,10.82
2023-01-17T00:34:31.569Z,12.50
2023-01-17T00:35:34.570Z,12.73
2023-01-17T00:36:36.429Z,10.68
2023-01-17T00:37:38.236Z,8.75
2023-01-17T00:38:41.046Z,9.82
2023-01-17T00:39:42.843Z,10.15
2023-01-17T00:40:46.304Z,7.05
2023-01-17T00:41:48.196Z,6.82
2023-01-17T00:42:50.012Z,10.52
2023-01-17T00:44:07.250Z,9.65
2023-01-17T00:45:25.318Z,9.93
2023-01-17T00:46:42.907Z,11.10
2023-01-17T00:48:03.321Z,10.75
2023-01-17T00:49:21.201Z,10.98
2023-01-17T00:50:38.513Z,11.82
2023-01-17T00:51:57.931Z,10.93
2023-01-17T00:53:19.432Z,8.18
2023-01-17T00:54:36.663Z,9.90
2023-01-17T00:55:53.923Z,10.55
2023-01-17T00:57:11.352Z,9.48
2023-01-17T00:58:29.242Z,8.52
2023-01-17T00:59:46.699Z,11.68
2023-01-17T01:01:06.213Z,10.27
2023-01-17T01:02:23.360Z,12.57
2023-01-17T01:03:43.506Z,16.10
2023-01-17T01:05:00.528Z,8.73
2023-01-17T01:06:20.273Z,10.73
2023-01-17T01:07:37.559Z,13.88
2023-01-17T01:08:54.959Z,15.75
2023-01-17T01:10:13.493Z,9.07
2023-01-17T01:11:33.805Z,7.45
2023-01-17T01:12:50.901Z,14.00
2023-01-17T01:14:08.171Z,10.65
2023-01-17T01:15:25.414Z,10.82
2023-01-17T01:16:42.575Z,10.43
2023-01-17T01:18:02.371Z,10.80
2023-01-17T01:19:22.460Z,11.10
2023-01-17T01:20:39.573Z,14.90
2023-01-17T01:21:56.924Z,10.52
2023-01-17T01:23:14.009Z,9.45
2023-01-17T01:24:31.329Z,9.93
2023-01-17T01:25:48.408Z,15.05
2023-01-17T01:27:05.597Z,12.68
2023-01-17T01:28:26.468Z,10.70
2023-01-17T01:29:43.497Z,12.80
2023-01-17T01:31:00.591Z,10.15
2023-01-17T01:32:17.905Z,9.57
2023-01-17T01:33:19.843Z,14.75
2023-01-17T01:34:27.507Z,14.13
2023-01-17T01:35:30.102Z,10.10
2023-01-17T01:36:34.826Z,11.07
2023-01-17T01:37:36.821Z,12.02
2023-01-17T01:38:41.970Z,10.40
2023-01-17T01:39:43.959Z,14.18
2023-01-17T01:40:50.714Z,9.55
2023-01-17T01:41:53.786Z,11.48
2023-01-17T01:43:01.330Z,11.65
2023-01-17T01:44:03.475Z,13.38
2023-01-17T01:45:19.885Z,10.10
2023-01-17T01:46:28.844Z,11.55
2023-01-17T01:47:36.115Z,11.63
2023-01-17T01:48:45.637Z,7.72
2023-01-17T01:49:51.381Z,8.70
2023-01-17T01:50:56.734Z,10.43
2023-01-17T01:52:01.859Z,10.32
2023-01-17T01:53:10.181Z,13.70
2023-01-17T01:54:19.730Z,16.25
2023-01-17T01:55:26.323Z,13.82
2023-01-17T01:56:32.826Z,14.38
2023-01-17T01:57:41.044Z,11.85
2023-01-17T01:58:51.224Z,8.15
2023-01-17T01:59:57.745Z,11.35
2023-01-17T02:01:03.750Z,11.82
2023-01-17T02:02:07.644Z,15.32
2023-01-17T02:03:17.403Z,14.10
2023-01-17T02:04:21.922Z,12.55
2023-01-17T02:05:31.115Z,12.35
2023-01-17T02:06:36.833Z,12.02
2023-01-17T02:07:48.765Z,7.47
2023-01-17T02:10:57.535Z,12.18
2023-01-17T02:12:05.689Z,10.00
2023-01-17T02:13:08.780Z,10.90
2023-01-17T02:14:18.667Z,10.55
2023-01-17T02:15:24.338Z,10.18
2023-01-17T02:16:47.150Z,13.30
2023-01-17T02:17:59.596Z,11.57
2023-01-17T02:19:21.818Z,10.70
2023-01-17T02:20:58.858Z,10.73
2023-01-17T02:22:27.633Z,10.43
2023-01-17T02:23:48.189Z,12.40
2023-01-17T02:25:21.997Z,7.80
2023-01-17T02:26:37.794Z,12.05
2023-01-17T02:28:04.239Z,10.38
2023-01-17T02:29:34.617Z,8.55
2023-01-17T02:30:45.412Z,15.55
2023-01-17T02:31:51.964Z,8.18
2023-01-17T02:33:06.628Z,10.60
2023-01-17T02:34:14.988Z,12.65
2023-01-17T02:35:28.389Z,14.05
2023-01-17T02:36:35.904Z,14.27
2023-01-17T02:37:53.526Z,15.27
2023-01-17T02:39:06.673Z,11.32
2023-01-17T02:40:17.669Z,13.18
2023-01-17T02:41:25.909Z,8.73
2023-01-17T02:42:35.053Z,12.55
2023-01-17T02:43:40.726Z,11.23
2023-01-17T02:44:44.183Z,11.85
2023-01-17T02:45:51.803Z,8.15
2023-01-17T02:46:55.662Z,8.15
2023-01-17T02:48:01.104Z,12.05
2023-01-17T02:49:03.737Z,12.07
2023-01-17T02:50:13.360Z,11.73
2023-01-17T02:51:44.977Z,10.57
2023-01-17T02:52:56.520Z,12.40
2023-01-17T02:55:22.925Z,10.90
2023-01-17T02:56:41.651Z,11.52
2023-01-17T02:58:07.265Z,9.43
2023-01-17T02:59:22.567Z,9.50
2023-01-17T03:00:32.750Z,12.10
2023-01-17T03:01:53.711Z,14.45
2023-01-17T03:03:02.612Z,12.95
2023-01-17T03:04:15.810Z,12.40
2023-01-17T03:05:23.616Z,11.48
2023-01-17T03:06:36.858Z,13.85
2023-01-17T03:07:43.189Z,8.68
2023-01-17T03:08:51.580Z,11.02
2023-01-17T03:10:00.558Z,10.32
2023-01-17T03:11:13.199Z,10.98
2023-01-17T03:12:15.727Z,9.10
2023-01-17T03:13:20.662Z,8.70
2023-01-17T03:14:22.706Z,9.40
2023-01-17T03:15:27.881Z,11.15
2023-01-17T03:16:35.185Z,10.48
2023-01-17T03:17:48.973Z,12.75
2023-01-17T03:18:51.342Z,13.15
2023-01-17T03:19:56.333Z,10.25
2023-01-17T03:20:59.423Z,7.32
2023-01-17T03:22:06.088Z,8.40
2023-01-17T03:23:08.135Z,9.70
2023-01-17T03:24:12.810Z,12.35
2023-01-17T03:25:16.490Z,9.07
2023-01-17T03:26:21.754Z,8.57
2023-01-17T03:27:23.823Z,10.00
2023-01-17T03:28:28.590Z,10.23
2023-01-17T03:29:30.649Z,9.15
2023-01-17T03:30:35.828Z,9.35
2023-01-17T03:31:37.905Z,8.93
2023-01-17T03:32:45.472Z,7.43
2023-01-17T03:33:50.529Z,7.63
2023-01-17T03:34:52.612Z,9.15
2023-01-17T03:35:58.280Z,9.05
2023-01-17T03:37:03.204Z,8.63
2023-01-17T03:38:07.939Z,8.77
2023-01-17T03:39:10.060Z,5.55
2023-01-17T03:40:17.877Z,7.10
2023-01-17T03:41:20.555Z,6.18
2023-01-17T03:42:25.449Z,7.28
2023-01-17T03:43:27.695Z,6.20
2023-01-17T03:44:34.461Z,9.43
2023-01-17T03:45:36.691Z,6.68
2023-01-17T03:46:41.593Z,8.82
2023-01-17T03:47:47.091Z,8.80
2023-01-17T03:48:51.846Z,7.18
2023-01-17T03:49:53.863Z,9.73
2023-01-17T03:50:58.740Z,11.27
2023-01-17T03:52:00.883Z,8.88
2023-01-17T03:53:05.878Z,8.95
2023-01-17T03:54:08.284Z,6.65
2023-01-17T03:55:13.703Z,7.55
2023-01-17T03:56:15.974Z,7.45
2023-01-17T03:57:23.004Z,5.72
2023-01-17T03:58:29.009Z,6.55
2023-01-17T03:59:34.690Z,7.20
2023-01-17T04:00:37.055Z,6.65
2023-01-17T04:01:42.103Z,8.63
2023-01-17T04:02:50.115Z,5.88
2023-01-17T04:03:52.165Z,5.53
2023-01-17T04:04:57.311Z,10.48
2023-01-17T04:05:59.540Z,8.73
2023-01-17T04:07:04.504Z,7.28
2023-01-17T04:08:07.330Z,6.15
2023-01-17T04:09:12.165Z,8.45
2023-01-17T04:10:14.326Z,6.93
2023-01-17T04:11:19.118Z,7.05
2023-01-17T04:12:21.086Z,6.25
2023-01-17T04:13:26.055Z,5.60
2023-01-17T04:14:28.277Z,6.75
2023-01-17T04:15:33.114Z,8.57
2023-01-17T04:16:36.473Z,8.07
2023-01-17T04:17:41.766Z,6.88
2023-01-17T04:18:46.592Z,9.95
2023-01-17T04:19:53.826Z,5.53
2023-01-17T04:20:55.897Z,7.22
2023-01-17T04:22:00.777Z,8.25
2023-01-17T04:23:03.322Z,6.65
2023-01-17T04:24:10.937Z,6.20
2023-01-17T04:25:13.073Z,8.20
2023-01-17T04:26:17.894Z,7.25
2023-01-17T04:27:21.963Z,8.77
2023-01-17T04:28:28.308Z,7.90
2023-01-17T04:29:31.716Z,8.18
2023-01-17T04:30:37.110Z,5.68
2023-01-17T04:31:39.373Z,5.05
2023-01-17T04:32:45.332Z,7.78
2023-01-17T04:33:51.347Z,6.90
2023-01-17T04:34:56.116Z,7.40
2023-01-17T04:35:58.411Z,6.03
2023-01-17T04:37:03.312Z,8.07
2023-01-17T04:38:05.372Z,6.68
2023-01-17T04:39:10.600Z,6.25
2023-01-17T04:40:13.492Z,7.35
2023-01-17T04:41:19.950Z,7.70
2023-01-17T04:42:23.965Z,8.85
2023-01-17T04:43:28.886Z,8.48
2023-01-17T04:44:31.180Z,7.63
2023-01-17T04:45:36.054Z,8.68
2023-01-17T04:46:39.849Z,8.73
2023-01-17T04:47:44.505Z,8.68
2023-01-17T04:48:46.485Z,8.30
2023-01-17T04:49:54.003Z,9.15
2023-01-17T04:51:00.539Z,8.48
2023-01-17T04:52:05.348Z,12.00
2023-01-17T04:53:09.746Z,8.48
2023-01-17T04:54:14.420Z,7.10
2023-01-17T04:55:16.982Z,8.93
2023-01-17T04:56:23.703Z,7.57
2023-01-17T04:57:26.047Z,7.28
2023-01-17T04:58:30.795Z,8.32
2023-01-17T04:59:33.059Z,8.50
2023-01-17T05:00:39.844Z,9.13
2023-01-17T05:01:43.299Z,9.65
2023-01-17T05:02:48.301Z,7.13
2023-01-17T05:03:50.353Z,6.95
2023-01-17T05:04:57.655Z,8.25
2023-01-17T05:06:00.215Z,9.07
2023-01-17T05:07:08.315Z,9.43
2023-01-17T05:08:10.640Z,9.38
2023-01-17T05:09:15.626Z,8.75
2023-01-17T05:10:17.903Z,9.52
2023-01-17T05:11:24.680Z,12.13
2023-01-17T05:12:27.097Z,9.45
2023-01-17T05:13:32.937Z,12.02
2023-01-17T05:14:35.234Z,14.70
2023-01-17T05:15:40.973Z,13.98
2023-01-17T05:16:43.995Z,13.25
2023-01-17T05:17:49.133Z,15.65
2023-01-17T05:18:52.667Z,11.05
2023-01-17T05:20:00.345Z,9.35
2023-01-17T05:21:02.885Z,6.72
2023-01-17T05:22:16.655Z,9.13
2023-01-17T05:23:18.773Z,5.93
2023-01-17T05:24:25.650Z,5.30
2023-01-17T05:25:29.842Z,6.65
2023-01-17T05:26:34.743Z,4.80
2023-01-17T05:27:36.974Z,6.78
2023-01-17T05:28:41.943Z,6.75
2023-01-17T05:29:44.036Z,5.82
2023-01-17T05:30:48.872Z,6.50
2023-01-17T05:31:50.917Z,5.65
2023-01-17T05:32:58.773Z,10.90
2023-01-17T05:34:04.211Z,8.88
2023-01-17T05:35:10.218Z,6.82
2023-01-17T05:36:15.211Z,5.60
2023-01-17T05:37:17.555Z,4.72
2023-01-17T05:38:24.113Z,4.10
2023-01-17T05:39:26.727Z,3.72
2023-01-17T05:40:34.084Z,4.88
2023-01-17T05:41:41.125Z,5.45
2023-01-17T05:42:46.996Z,4.68
2023-01-17T05:43:51.978Z,4.43
2023-01-17T05:44:56.916Z,4.95
2023-01-17T05:45:59.123Z,5.50
2023-01-17T05:47:04.087Z,5.35
2023-01-17T05:48:06.830Z,5.00
2023-01-17T05:49:11.702Z,4.95
2023-01-17T05:50:19.066Z,5.15
2023-01-17T05:51:25.419Z,5.50
2023-01-17T05:52:27.642Z,5.18
2023-01-17T05:53:32.607Z,5.43
2023-01-17T05:54:34.719Z,6.18
2023-01-17T05:55:40.435Z,6.00
2023-01-17T05:56:42.515Z,6.65
2023-01-17T05:57:47.381Z,6.22
2023-01-17T05:58:51.202Z,7.82
2023-01-17T05:59:56.071Z,8.40
2023-01-17T06:01:01.557Z,7.10
2023-01-17T06:02:03.698Z,7.95
2023-01-17T06:03:08.690Z,8.27
2023-01-17T06:04:10.707Z,9.18
2023-01-17T06:05:19.455Z,7.95
2023-01-17T06:06:24.612Z,8.93
2023-01-17T06:07:26.846Z,9.20
2023-01-17T06:08:31.691Z,12.90
2023-01-17T06:09:33.702Z,9.30
2023-01-17T06:10:38.770Z,10.05
2023-01-17T06:11:40.862Z,18.20
2023-01-17T06:12:47.123Z,22.45
2023-01-17T06:13:49.513Z,17.13
2023-01-17T06:14:54.299Z,16.83
2023-01-17T06:16:03.039Z,14.07
2023-01-17T06:17:05.522Z,11.82
2023-01-17T06:18:11.240Z,8.45
2023-01-17T06:19:15.532Z,8.85
2023-01-17T06:20:23.560Z,7.60
2023-01-17T06:21:25.721Z,6.93
2023-01-17T06:22:30.722Z,5.50
2023-01-17T06:23:32.890Z,6.50
2023-01-17T06:24:37.899Z,7.13
2023-01-17T06:25:41.358Z,6.07
2023-01-17T06:26:46.730Z,6.78
2023-01-17T06:27:50.649Z,5.90
2023-01-17T06:28:56.639Z,5.35
2023-01-17T06:29:58.614Z,5.13
2023-01-17T06:31:09.373Z,6.18
2023-01-17T06:32:13.451Z,5.65
2023-01-17T06:33:19.351Z,4.97
2023-01-17T06:34:21.553Z,4.45
2023-01-17T06:35:31.773Z,3.53
2023-01-17T06:36:34.193Z,3.28
2023-01-17T06:37:39.288Z,4.47
2023-01-17T06:38:44.195Z,4.22
2023-01-17T06:39:46.285Z,4.95
2023-01-17T06:40:51.148Z,5.50
2023-01-17T06:41:53.346Z,15.35
2023-01-17T06:43:01.981Z,17.15
2023-01-17T06:44:04.382Z,14.18
2023-01-17T06:45:11.056Z,15.10
2023-01-17T06:46:13.091Z,13.73
2023-01-17T06:47:17.901Z,17.85
2023-01-17T06:48:22.777Z,10.85
2023-01-17T06:49:24.849Z,11.93
2023-01-17T06:50:32.704Z,10.73
2023-01-17T06:51:37.652Z,12.20
2023-01-17T06:52:39.934Z,13.10
2023-01-17T06:53:46.010Z,9.75
2023-01-17T06:54:50.680Z,8.98
2023-01-17T06:55:56.358Z,11.60
2023-01-17T06:57:06.030Z,10.65
2023-01-17T06:58:09.797Z,10.50
2023-01-17T06:59:14.570Z,10.18
2023-01-17T07:00:20.329Z,8.18
2023-01-17T07:01:25.412Z,6.75
2023-01-17T07:02:27.689Z,7.63
2023-01-17T07:03:32.345Z,5.47
2023-01-17T07:04:37.869Z,6.20
2023-01-17T07:05:42.683Z,7.80
2023-01-17T07:06:47.536Z,4.68
2023-01-17T07:07:49.622Z,5.75
2023-01-17T07:08:55.570Z,5.55
2023-01-17T07:09:57.830Z,5.10
2023-01-17T07:11:04.321Z,5.20
2023-01-17T07:12:09.931Z,5.07
2023-01-17T07:13:12.338Z,5.45
2023-01-17T07:14:17.489Z,5.65
2023-01-17T07:15:19.484Z,6.10
2023-01-17T07:16:24.846Z,4.78
2023-01-17T07:17:29.703Z,4.93
2023-01-17T07:18:34.786Z,4.97
2023-01-17T07:19:36.819Z,5.03
2023-01-17T07:20:45.778Z,4.70
2023-01-17T07:21:53.427Z,6.18
2023-01-17T07:22:55.669Z,6.13
2023-01-17T07:24:00.543Z,6.18
2023-01-17T07:25:02.558Z,6.47
2023-01-17T07:26:07.704Z,5.53
2023-01-17T07:27:13.031Z,6.60
2023-01-17T07:28:19.137Z,6.63
2023-01-17T07:29:26.550Z,6.57
2023-01-17T07:30:28.857Z,6.35
2023-01-17T07:31:35.636Z,5.90
2023-01-17T07:32:37.638Z,6.18
2023-01-17T07:33:42.659Z,6.95
2023-01-17T07:34:44.725Z,6.80
2023-01-17T07:35:52.169Z,7.05
2023-01-17T07:36:54.825Z,7.78
2023-01-17T07:37:59.729Z,7.70
2023-01-17T07:39:02.063Z,7.32
2023-01-17T07:40:07.891Z,8.38
2023-01-17T07:41:13.486Z,8.77
2023-01-17T07:42:15.757Z,8.88
2023-01-17T07:43:20.812Z,8.48
2023-01-17T07:44:26.975Z,8.65
2023-01-17T07:45:33.488Z,7.53
2023-01-17T07:46:36.341Z,7.75
2023-01-17T07:47:41.914Z,8.27
2023-01-17T07:48:47.963Z,8.93
2023-01-17T07:49:50.326Z,8.65
2023-01-17T07:50:59.656Z,8.20
2023-01-17T07:52:04.572Z,8.10
2023-01-17T07:53:09.516Z,7.68
2023-01-17T07:54:14.675Z,7.65
2023-01-17T07:55:16.982Z,7.57
2023-01-17T07:56:21.820Z,6.88
2023-01-17T07:57:24.168Z,6.68
2023-01-17T07:58:28.987Z,6.90
2023-01-17T07:59:31.143Z,6.85
2023-01-17T08:00:38.111Z,7.07
2023-01-17T08:01:40.338Z,8.63
2023-01-17T08:02:45.342Z,7.05
2023-01-17T08:03:55.030Z,7.80
2023-01-17T08:04:59.573Z,7.28
2023-01-17T08:06:07.632Z,6.88
2023-01-17T08:07:09.772Z,6.88
2023-01-17T08:08:15.947Z,7.00
2023-01-17T08:09:21.822Z,7.75
2023-01-17T08:10:26.858Z,6.45
2023-01-17T08:11:31.684Z,6.57
2023-01-17T08:12:34.231Z,7.45
2023-01-17T08:13:39.290Z,6.88
2023-01-17T08:14:44.685Z,7.72
2023-01-17T08:15:48.481Z,12.30
2023-01-17T08:16:53.558Z,15.45
2023-01-17T08:17:57.762Z,13.40
2023-01-17T08:19:02.657Z,12.43
2023-01-17T08:20:06.569Z,11.07
2023-01-17T08:21:18.586Z,11.48
2023-01-17T08:22:20.675Z,15.98
2023-01-17T08:23:26.533Z,19.58
2023-01-17T08:24:28.572Z,22.80
2023-01-17T08:25:35.416Z,46.60
2023-01-17T08:26:37.693Z,18.20
2023-01-17T08:27:42.533Z,20.98
2023-01-17T08:28:47.423Z,22.33
2023-01-17T08:29:52.536Z,17.85
2023-01-17T08:30:54.584Z,21.98
2023-01-17T08:31:59.507Z,22.88
2023-01-17T08:33:06.789Z,26.95
2023-01-17T08:34:11.611Z,31.27
2023-01-17T08:35:14.301Z,25.48
2023-01-17T08:36:22.256Z,23.88
2023-01-17T08:37:24.663Z,34.45
2023-01-17T08:38:29.731Z,18.70
2023-01-17T08:39:33.762Z,17.65
2023-01-17T08:40:39.672Z,21.83
2023-01-17T08:41:45.063Z,29.70
2023-01-17T08:42:57.045Z,25.42
2023-01-17T08:43:59.049Z,25.23
2023-01-17T08:45:03.952Z,16.35
2023-01-17T08:46:08.968Z,15.30
2023-01-17T08:47:11.387Z,17.55
2023-01-17T08:48:16.020Z,8.43
2023-01-17T08:49:21.380Z,6.65
2023-01-17T08:50:27.114Z,8.80
2023-01-17T08:51:33.052Z,15.40
2023-01-17T08:52:38.248Z,12.93
2023-01-17T08:53:43.685Z,20.92
2023-01-17T08:54:45.826Z,22.00
2023-01-17T08:55:51.697Z,24.23
2023-01-17T08:56:56.814Z,22.98
2023-01-17T08:57:59.495Z,26.92
2023-01-17T08:59:04.822Z,17.23
2023-01-17T09:00:11.491Z,26.90
2023-01-17T09:01:17.012Z,17.45
2023-01-17T09:02:25.077Z,19.15
2023-01-17T09:03:30.838Z,19.92
2023-01-17T09:04:33.206Z,15.98
2023-01-17T09:05:38.427Z,16.02
2023-01-17T09:06:48.978Z,10.10
2023-01-17T09:07:53.853Z,15.95
2023-01-17T09:09:00.033Z,22.63
2023-01-17T09:10:05.568Z,26.63
2023-01-17T09:11:13.113Z,21.10
2023-01-17T09:12:18.250Z,20.48
2023-01-17T09:13:24.376Z,20.17
2023-01-17T09:14:30.024Z,16.23
2023-01-17T09:15:38.396Z,17.05
2023-01-17T09:16:45.651Z,18.38
2023-01-17T09:17:53.010Z,14.73
2023-01-17T09:18:58.597Z,12.65
2023-01-17T09:20:03.720Z,10.52
2023-01-17T09:21:23.610Z,12.25
2023-01-17T09:22:36.156Z,10.75
2023-01-17T09:23:42.616Z,11.55
2023-01-17T09:24:51.377Z,18.13
2023-01-17T09:26:02.070Z,14.75
2023-01-17T09:27:07.529Z,16.90
2023-01-17T09:28:16.178Z,15.32
2023-01-17T09:29:21.709Z,11.45
2023-01-17T09:30:31.006Z,6.93
2023-01-17T09:31:36.483Z,11.13
2023-01-17T09:32:44.441Z,11.82
2023-01-17T09:33:53.395Z,12.10
2023-01-17T09:35:04.899Z,14.52
2023-01-17T09:37:19.152Z,15.88
2023-01-17T09:38:26.944Z,15.27
2023-01-17T09:39:34.283Z,18.80
2023-01-17T09:40:46.643Z,10.73
2023-01-17T09:42:01.711Z,22.65
2023-01-17T09:43:10.662Z,13.48
2023-01-17T09:44:27.733Z,21.55
2023-01-17T09:45:35.185Z,20.02
2023-01-17T09:46:45.804Z,23.55
2023-01-17T09:47:55.757Z,20.85
2023-01-17T09:49:17.408Z,26.27
2023-01-17T09:50:35.006Z,23.70
2023-01-17T09:51:37.599Z,34.60
2023-01-17T09:52:42.679Z,26.23
2023-01-17T09:53:55.327Z,18.70
2023-01-17T09:55:00.657Z,16.98
2023-01-17T09:56:08.438Z,18.67
2023-01-17T09:57:39.359Z,19.27
2023-01-17T09:58:48.543Z,10.10
2023-01-17T10:00:03.775Z,17.63
2023-01-17T10:01:18.715Z,16.23
2023-01-17T10:02:51.577Z,10.75
2023-01-17T10:04:15.206Z,19.20
2023-01-17T10:05:32.990Z,13.60
2023-01-17T10:06:52.169Z,17.42
2023-01-17T10:08:12.776Z,24.08
2023-01-17T10:09:35.958Z,19.30
2023-01-17T10:10:45.822Z,18.02
2023-01-17T10:12:10.231Z,20.17
2023-01-17T10:13:36.342Z,13.88
2023-01-17T10:15:04.855Z,16.13
2023-01-17T10:16:38.163Z,14.98
2023-01-17T10:17:51.426Z,13.50
2023-01-17T10:19:27.176Z,13.68
2023-01-17T10:20:47.409Z,19.10
2023-01-17T10:22:06.005Z,15.27
2023-01-17T10:23:35.029Z,21.05
2023-01-17T10:25:29.141Z,22.08
2023-01-17T10:26:42.671Z,16.42
2023-01-17T10:28:04.419Z,22.90
2023-01-17T10:29:20.144Z,20.55
2023-01-17T10:30:31.239Z,11.48
2023-01-17T10:31:43.890Z,19.27
2023-01-17T10:32:52.253Z,17.27
2023-01-17T10:34:03.928Z,21.02
2023-01-17T10:35:20.521Z,22.00
2023-01-17T10:36:28.280Z,16.73
2023-01-17T10:37:43.751Z,20.70
2023-01-17T10:38:50.954Z,16.85
2023-01-17T10:39:58.998Z,15.70
2023-01-17T10:41:11.817Z,18.88
2023-01-17T10:42:22.906Z,14.68
2023-01-17T10:43:31.149Z,15.40
2023-01-17T10:44:40.662Z,15.18
2023-01-17T10:45:52.056Z,14.52
2023-01-17T10:47:01.285Z,17.02
2023-01-17T10:48:11.937Z,14.27
2023-01-17T10:49:20.276Z,8.45
2023-01-17T10:50:24.275Z,16.55
2023-01-17T10:51:51.564Z,14.18
2023-01-17T10:53:04.026Z,11.00
2023-01-17T10:54:16.356Z,15.80
2023-01-17T10:55:34.435Z,18.80
2023-01-17T10:56:40.853Z,16.60
2023-01-17T10:57:47.425Z,20.27
2023-01-17T10:58:56.874Z,23.95
2023-01-17T11:00:00.619Z,28.38
2023-01-17T11:01:15.769Z,14.77
2023-01-17T11:02:27.488Z,20.67
2023-01-17T11:04:36.838Z,20.25
2023-01-17T11:05:45.046Z,19.08
2023-01-17T11:06:57.833Z,10.98
2023-01-17T11:08:04.501Z,18.55
2023-01-17T11:09:11.862Z,16.63
2023-01-17T11:10:39.855Z,17.00
2023-01-17T11:11:53.512Z,17.60
2023-01-17T11:12:55.626Z,18.55
2023-01-17T11:14:02.251Z,13.88
2023-01-17T11:15:19.861Z,16.77
2023-01-17T11:16:27.715Z,19.23
2023-01-17T11:17:31.019Z,15.02
2023-01-17T11:18:37.843Z,15.57
2023-01-17T11:19:40.600Z,17.88
2023-01-17T11:20:45.991Z,11.77
2023-01-17T11:21:53.919Z,19.08
2023-01-17T11:23:10.492Z,19.30
2023-01-17T11:24:23.152Z,17.30
2023-01-17T11:25:25.497Z,15.65
2023-01-17T11:26:32.981Z,16.17
2023-01-17T11:27:42.884Z,15.68
2023-01-17T11:28:49.664Z,16.77
2023-01-17T11:30:07.440Z,11.88
2023-01-17T11:31:27.973Z,13.65
2023-01-17T11:32:32.696Z,15.18
2023-01-17T11:33:46.092Z,11.85
2023-01-17T11:35:09.206Z,17.30
2023-01-17T11:36:24.900Z,14.90
2023-01-17T11:37:29.028Z,13.30
2023-01-17T11:38:33.639Z,13.57
2023-01-17T11:39:35.837Z,15.88
2023-01-17T11:40:43.237Z,16.20
2023-01-17T11:41:47.826Z,10.23
2023-01-17T11:43:03.074Z,18.73
2023-01-17T11:44:24.888Z,15.48
2023-01-17T11:45:28.991Z,18.27
2023-01-17T11:46:33.744Z,19.52
2023-01-17T11:47:35.801Z,13.93
2023-01-17T11:48:41.641Z,19.45
2023-01-17T11:49:51.537Z,25.70
2023-01-17T11:50:57.183Z,27.85
2023-01-17T11:52:03.953Z,22.65
2023-01-17T11:53:07.839Z,16.63
2023-01-17T11:54:20.933Z,14.93
2023-01-17T11:55:26.157Z,16.45
2023-01-17T11:56:36.587Z,19.42
2023-01-17T11:57:38.896Z,15.70
2023-01-17T11:58:47.319Z,15.35
2023-01-17T11:59:52.966Z,19.52
2023-01-17T12:01:01.078Z,17.27
2023-01-17T12:02:35.910Z,19.65
2023-01-17T12:04:08.259Z,15.48
2023-01-17T12:06:56.803Z,16.20
2023-01-17T12:08:10.112Z,15.88
2023-01-17T12:09:25.639Z,16.13
2023-01-17T12:10:35.893Z,16.00
2023-01-17T12:12:10.438Z,14.77
2023-01-17T12:13:36.576Z,19.15
2023-01-17T12:14:55.896Z,17.98
2023-01-17T12:16:30.839Z,16.00
2023-01-17T12:17:53.640Z,10.23
2023-01-17T12:19:24.697Z,17.77
2023-01-17T12:20:41.542Z,18.35
2023-01-17T12:21:58.410Z,22.77
2023-01-17T12:23:19.293Z,23.70
2023-01-17T12:24:41.404Z,21.17
2023-01-17T12:25:58.330Z,17.50
2023-01-17T12:27:11.370Z,17.15
2023-01-17T12:28:50.271Z,16.20
2023-01-17T12:30:11.906Z,22.02
2023-01-17T12:31:29.363Z,13.75
2023-01-17T12:32:53.502Z,10.27
2023-01-17T12:34:02.615Z,17.67
2023-01-17T12:35:15.187Z,13.20
2023-01-17T12:36:35.173Z,13.90
2023-01-17T12:37:42.522Z,14.50
2023-01-17T12:38:50.154Z,15.13
2023-01-17T12:39:59.998Z,18.10
2023-01-17T12:41:09.790Z,12.70
2023-01-17T12:42:18.733Z,19.63
2023-01-17T12:43:28.480Z,22.40
2023-01-17T12:44:47.423Z,18.60
2023-01-17T12:45:57.398Z,17.90
2023-01-17T12:47:03.561Z,18.63
2023-01-17T12:48:13.617Z,15.55
2023-01-17T12:49:23.775Z,13.75
2023-01-17T12:50:37.549Z,17.55
2023-01-17T12:51:47.448Z,17.05
2023-01-17T12:53:01.249Z,17.58
2023-01-17T12:54:15.379Z,16.08
2023-01-17T12:55:22.453Z,19.48
2023-01-17T12:56:32.783Z,11.88
2023-01-17T12:57:43.337Z,18.63
2023-01-17T12:58:53.153Z,16.20
2023-01-17T13:00:05.094Z,17.27
2023-01-17T13:01:22.716Z,12.23
2023-01-17T13:02:38.074Z,18.90
2023-01-17T13:03:57.661Z,16.55
2023-01-17T13:05:11.666Z,25.20
2023-01-17T13:06:25.040Z,25.98
2023-01-17T13:07:40.667Z,15.65
2023-01-17T13:08:49.715Z,16.70
2023-01-17T13:10:01.849Z,21.52
2023-01-17T13:11:12.120Z,26.42
2023-01-17T13:12:19.833Z,16.63
2023-01-17T13:13:24.286Z,24.45
2023-01-17T13:14:28.879Z,18.25
2023-01-17T13:15:37.839Z,19.77
2023-01-17T13:16:50.134Z,16.23
2023-01-17T13:18:01.419Z,17.98
2023-01-17T13:19:17.808Z,20.27
2023-01-17T13:20:27.101Z,17.20
2023-01-17T13:21:30.940Z,14.35
2023-01-17T13:22:39.248Z,13.82
2023-01-17T13:23:59.509Z,13.45
2023-01-17T13:25:15.984Z,23.88
2023-01-17T13:26:31.175Z,23.75
2023-01-17T13:28:03.638Z,13.20
2023-01-17T13:29:15.706Z,15.10
2023-01-17T13:30:34.871Z,17.60
2023-01-17T13:31:49.233Z,20.65
2023-01-17T13:33:17.999Z,21.02
2023-01-17T13:35:02.927Z,20.58
2023-01-17T13:36:32.647Z,19.40
2023-01-17T13:37:51.881Z,16.77
2023-01-17T13:39:17.955Z,19.92
2023-01-17T13:40:37.542Z,14.73
2023-01-17T13:41:50.119Z,16.90
2023-01-17T13:42:58.629Z,19.48
2023-01-17T13:44:17.164Z,20.33
2023-01-17T13:45:25.184Z,18.73
2023-01-17T13:46:32.923Z,18.77
2023-01-17T13:47:41.911Z,22.42
2023-01-17T13:48:46.534Z,19.35
2023-01-17T13:49:50.689Z,17.83
2023-01-17T13:50:56.222Z,16.92
2023-01-17T13:52:09.649Z,20.25
2023-01-17T13:53:59.594Z,10.95
2023-01-17T13:55:07.196Z,19.17
2023-01-17T13:56:13.795Z,17.50
2023-01-17T13:57:43.981Z,18.00
2023-01-17T13:58:58.358Z,18.00
2023-01-17T14:00:33.643Z,18.63
2023-01-17T14:01:54.246Z,20.08
2023-01-17T14:03:01.489Z,18.50
2023-01-17T14:04:07.075Z,22.20
2023-01-17T14:05:16.319Z,20.73
2023-01-17T14:06:40.788Z,19.40
2023-01-17T14:07:49.774Z,11.45
2023-01-17T14:08:52.967Z,12.13
2023-01-17T14:09:57.609Z,13.75
2023-01-17T14:11:09.797Z,14.52
2023-01-17T14:12:35.737Z,13.65
2023-01-17T14:13:39.886Z,14.93
2023-01-17T14:14:52.219Z,11.43
2023-01-17T14:15:59.793Z,15.85
2023-01-17T14:17:39.423Z,12.15
2023-01-17T14:18:48.375Z,14.95
2023-01-17T14:19:52.074Z,9.13
2023-01-17T14:21:09.979Z,12.05
2023-01-17T14:22:23.245Z,13.27
2023-01-17T14:23:38.048Z,16.33
2023-01-17T14:24:59.882Z,14.45
2023-01-17T14:27:25.985Z,17.35
2023-01-17T14:28:32.130Z,17.42
2023-01-17T14:29:52.953Z,16.85
2023-01-17T14:30:59.402Z,17.13
2023-01-17T14:32:02.322Z,11.73
2023-01-17T14:33:19.927Z,10.73
2023-01-17T14:34:27.533Z,6.32
2023-01-17T14:35:37.724Z,9.00
2023-01-17T14:36:43.165Z,6.07
2023-01-17T14:37:51.514Z,10.65
2023-01-17T14:38:56.766Z,18.02
2023-01-17T14:40:03.375Z,11.63
2023-01-17T14:41:09.510Z,8.20
2023-01-17T14:42:17.038Z,8.85
2023-01-17T14:43:27.706Z,6.15
2023-01-17T14:44:34.126Z,7.27
2023-01-17T14:45:39.603Z,11.10
2023-01-17T14:46:51.117Z,8.75
2023-01-17T14:47:54.805Z,10.50
2023-01-17T14:49:09.333Z,14.13
2023-01-17T14:50:24.043Z,13.85
2023-01-17T14:51:28.892Z,8.73
2023-01-17T14:52:30.930Z,8.18
2023-01-17T14:53:36.476Z,7.13
2023-01-17T14:54:50.525Z,8.55
2023-01-17T14:55:56.395Z,6.72
2023-01-17T14:57:29.840Z,11.20
2023-01-17T14:58:36.526Z,4.75
2023-01-17T14:59:38.535Z,6.20
2023-01-17T15:00:43.366Z,6.10
2023-01-17T15:02:06.672Z,5.78
2023-01-17T15:03:14.484Z,7.28
2023-01-17T15:04:29.326Z,6.10
2023-01-17T15:05:34.291Z,7.32
2023-01-17T15:06:41.399Z,7.10
2023-01-17T15:07:45.898Z,13.77
2023-01-17T15:08:54.238Z,15.48
2023-01-17T15:09:59.295Z,11.68
2023-01-17T15:11:05.704Z,15.35